sensor_id;sensor_type;location;lat;lon;timestamp;temperature;humidity
10453;DHT22;5274;51.992;8.518;2022-09-27T00:00:21;9.70;99.90
10453;DHT22;5274;51.992;8.518;2022-09-27T00:02:46;9.70;99.90
10453;DHT22;5274;51.992;8.518;2022-09-27T00:05:13;9.70;99.90
10453;DHT22;5274;51.992;8.518;2022-09-27T00:07:39;9.70;99.90
10453;DHT22;5274;51.992;8.518;2022-09-27T00:10:05;9.70;99.90
10453;DHT22;5274;51.992;8.518;2022-09-27T00:12:31;9.70;99.90
10453;DHT22;5274;51.992;8.518;2022-09-27T00:14:56;9.70;99.90
10453;DHT22;5274;51.992;8.518;2022-09-27T00:17:22;9.70;99.90
10453;DHT22;5274;51.992;8.518;2022-09-27T00:19:47;9.70;99.90
10453;DHT22;5274;51.992;8.518;2022-09-27T00:22:13;9.70;99.90
10453;DHT22;5274;51.992;8.518;2022-09-27T00:24:38;9.70;99.90
10453;DHT22;5274;51.992;8.518;2022-09-27T00:27:04;9.70;99.90
10453;DHT22;5274;51.992;8.518;2022-09-27T00:29:29;9.60;99.90
10453;DHT22;5274;51.992;8.518;2022-09-27T00:31:55;9.70;99.90
10453;DHT22;5274;51.992;8.518;2022-09-27T00:34:23;9.70;99.90
10453;DHT22;5274;51.992;8.518;2022-09-27T00:36:50;9.60;99.90
10453;DHT22;5274;51.992;8.518;2022-09-27T00:39:15;9.70;99.90
10453;DHT22;5274;51.992;8.518;2022-09-27T00:41:41;9.70;99.90
10453;DHT22;5274;51.992;8.518;2022-09-27T00:47:03;9.70;99.90
10453;DHT22;5274;51.992;8.518;2022-09-27T00:49:34;9.70;99.90
10453;DHT22;5274;51.992;8.518;2022-09-27T00:52:04;9.60;99.90
10453;DHT22;5274;51.992;8.518;2022-09-27T00:54:33;9.70;99.90
10453;DHT22;5274;51.992;8.518;2022-09-27T00:57:01;9.70;99.90
10453;DHT22;5274;51.992;8.518;2022-09-27T00:59:40;9.60;99.90
10453;DHT22;5274;51.992;8.518;2022-09-27T01:02:10;9.70;99.90
10453;DHT22;5274;51.992;8.518;2022-09-27T01:04:36;9.70;99.90
10453;DHT22;5274;51.992;8.518;2022-09-27T01:07:02;9.70;99.90
10453;DHT22;5274;51.992;8.518;2022-09-27T01:09:28;9.60;99.90
10453;DHT22;5274;51.992;8.518;2022-09-27T01:12:16;9.70;99.90
10453;DHT22;5274;51.992;8.518;2022-09-27T01:15:00;9.70;99.90
10453;DHT22;5274;51.992;8.518;2022-09-27T01:17:43;9.70;99.90
10453;DHT22;5274;51.992;8.518;2022-09-27T01:20:46;9.80;99.90
10453;DHT22;5274;51.992;8.518;2022-09-27T01:35:30;9.70;99.90
10453;DHT22;5274;51.992;8.518;2022-09-27T01:38:14;9.60;99.90
10453;DHT22;5274;51.992;8.518;2022-09-27T01:44:00;9.60;99.90
10453;DHT22;5274;51.992;8.518;2022-09-27T01:46:30;9.60;99.90
10453;DHT22;5274;51.992;8.518;2022-09-27T01:49:01;9.50;99.90
10453;DHT22;5274;51.992;8.518;2022-09-27T01:51:31;9.60;99.90
10453;DHT22;5274;51.992;8.518;2022-09-27T01:54:01;9.50;99.90
10453;DHT22;5274;51.992;8.518;2022-09-27T01:56:41;9.50;99.90
10453;DHT22;5274;51.992;8.518;2022-09-27T01:59:19;9.50;99.90
10453;DHT22;5274;51.992;8.518;2022-09-27T02:01:49;9.40;99.90
10453;DHT22;5274;51.992;8.518;2022-09-27T02:04:20;9.40;99.90
10453;DHT22;5274;51.992;8.518;2022-09-27T02:06:48;9.50;99.90
10453;DHT22;5274;51.992;8.518;2022-09-27T02:09:19;9.50;99.90
10453;DHT22;5274;51.992;8.518;2022-09-27T02:11:51;9.50;99.90
10453;DHT22;5274;51.992;8.518;2022-09-27T02:14:32;9.50;99.90
10453;DHT22;5274;51.992;8.518;2022-09-27T02:17:12;9.50;99.90
10453;DHT22;5274;51.992;8.518;2022-09-27T02:22:43;9.40;99.90
10453;DHT22;5274;51.992;8.518;2022-09-27T02:25:33;9.30;99.90
10453;DHT22;5274;51.992;8.518;2022-09-27T02:28:07;9.30;99.90
10453;DHT22;5274;51.992;8.518;2022-09-27T02:30:35;9.40;99.90
10453;DHT22;5274;51.992;8.518;2022-09-27T02:33:02;9.30;99.90
10453;DHT22;5274;51.992;8.518;2022-09-27T02:35:31;9.40;99.90
10453;DHT22;5274;51.992;8.518;2022-09-27T02:37:57;9.40;99.90
10453;DHT22;5274;51.992;8.518;2022-09-27T02:40:24;9.40;99.90
10453;DHT22;5274;51.992;8.518;2022-09-27T02:42:54;9.40;99.90
10453;DHT22;5274;51.992;8.518;2022-09-27T02:45:19;9.30;99.90
10453;DHT22;5274;51.992;8.518;2022-09-27T02:48:14;9.30;99.90
10453;DHT22;5274;51.992;8.518;2022-09-27T02:51:00;9.30;99.90
10453;DHT22;5274;51.992;8.518;2022-09-27T02:56:17;9.30;99.90
10453;DHT22;5274;51.992;8.518;2022-09-27T03:04:32;9.20;99.90
10453;DHT22;5274;51.992;8.518;2022-09-27T03:06:59;9.20;99.90
10453;DHT22;5274;51.992;8.518;2022-09-27T03:09:29;9.20;99.90
10453;DHT22;5274;51.992;8.518;2022-09-27T03:12:04;9.20;99.90
10453;DHT22;5274;51.992;8.518;2022-09-27T03:14:29;9.20;99.90
10453;DHT22;5274;51.992;8.518;2022-09-27T03:16:55;9.20;99.90
10453;DHT22;5274;51.992;8.518;2022-09-27T03:19:20;9.30;99.90
10453;DHT22;5274;51.992;8.518;2022-09-27T03:21:46;9.20;99.90
10453;DHT22;5274;51.992;8.518;2022-09-27T03:24:11;9.10;99.90
10453;DHT22;5274;51.992;8.518;2022-09-27T03:26:37;9.10;99.90
10453;DHT22;5274;51.992;8.518;2022-09-27T03:29:02;9.20;99.90
10453;DHT22;5274;51.992;8.518;2022-09-27T03:31:28;9.20;99.90
10453;DHT22;5274;51.992;8.518;2022-09-27T03:33:54;9.10;99.90
10453;DHT22;5274;51.992;8.518;2022-09-27T03:36:20;9.20;99.90
10453;DHT22;5274;51.992;8.518;2022-09-27T03:38:45;9.10;99.90
10453;DHT22;5274;51.992;8.518;2022-09-27T03:41:11;9.10;99.90
10453;DHT22;5274;51.992;8.518;2022-09-27T03:43:36;9.00;99.90
10453;DHT22;5274;51.992;8.518;2022-09-27T03:46:02;9.10;99.90
10453;DHT22;5274;51.992;8.518;2022-09-27T03:48:27;9.00;99.90
10453;DHT22;5274;51.992;8.518;2022-09-27T03:50:55;9.00;99.90
10453;DHT22;5274;51.992;8.518;2022-09-27T03:53:21;9.00;99.90
10453;DHT22;5274;51.992;8.518;2022-09-27T03:55:46;9.00;99.90
10453;DHT22;5274;51.992;8.518;2022-09-27T03:58:12;9.00;99.90
10453;DHT22;5274;51.992;8.518;2022-09-27T04:00:38;8.90;99.90
10453;DHT22;5274;51.992;8.518;2022-09-27T04:03:05;8.90;99.90
10453;DHT22;5274;51.992;8.518;2022-09-27T04:05:31;9.00;99.90
10453;DHT22;5274;51.992;8.518;2022-09-27T04:07:57;8.90;99.90
10453;DHT22;5274;51.992;8.518;2022-09-27T04:10:22;8.80;99.90
10453;DHT22;5274;51.992;8.518;2022-09-27T04:12:48;8.80;99.90
10453;DHT22;5274;51.992;8.518;2022-09-27T04:15:13;8.80;99.90
10453;DHT22;5274;51.992;8.518;2022-09-27T04:17:42;8.80;99.90
10453;DHT22;5274;51.992;8.518;2022-09-27T04:20:09;8.80;99.90
10453;DHT22;5274;51.992;8.518;2022-09-27T04:22:38;8.80;99.90
10453;DHT22;5274;51.992;8.518;2022-09-27T04:25:04;8.70;99.90
10453;DHT22;5274;51.992;8.518;2022-09-27T04:27:30;8.70;99.90
10453;DHT22;5274;51.992;8.518;2022-09-27T04:29:55;8.70;99.90
10453;DHT22;5274;51.992;8.518;2022-09-27T04:32:20;8.70;99.90
10453;DHT22;5274;51.992;8.518;2022-09-27T04:34:46;8.70;99.90
10453;DHT22;5274;51.992;8.518;2022-09-27T04:37:30;8.70;99.90
10453;DHT22;5274;51.992;8.518;2022-09-27T04:39:55;8.70;99.90
10453;DHT22;5274;51.992;8.518;2022-09-27T04:42:21;8.70;99.90
10453;DHT22;5274;51.992;8.518;2022-09-27T04:44:46;8.70;99.90
10453;DHT22;5274;51.992;8.518;2022-09-27T04:47:12;8.70;99.90
10453;DHT22;5274;51.992;8.518;2022-09-27T04:49:37;8.60;99.90
10453;DHT22;5274;51.992;8.518;2022-09-27T04:52:03;8.60;99.90
10453;DHT22;5274;51.992;8.518;2022-09-27T04:54:30;8.70;99.90
10453;DHT22;5274;51.992;8.518;2022-09-27T04:56:55;8.60;99.90
10453;DHT22;5274;51.992;8.518;2022-09-27T04:59:21;8.60;99.90
10453;DHT22;5274;51.992;8.518;2022-09-27T05:01:47;8.60;99.90
10453;DHT22;5274;51.992;8.518;2022-09-27T05:04:14;8.60;99.90
10453;DHT22;5274;51.992;8.518;2022-09-27T05:06:40;8.60;99.90
10453;DHT22;5274;51.992;8.518;2022-09-27T05:09:05;8.60;99.90
10453;DHT22;5274;51.992;8.518;2022-09-27T05:11:31;8.60;99.90
10453;DHT22;5274;51.992;8.518;2022-09-27T05:13:56;8.50;99.90
10453;DHT22;5274;51.992;8.518;2022-09-27T05:16:21;8.60;99.90
10453;DHT22;5274;51.992;8.518;2022-09-27T05:18:47;8.50;99.90
10453;DHT22;5274;51.992;8.518;2022-09-27T05:21:13;8.50;99.90
10453;DHT22;5274;51.992;8.518;2022-09-27T05:23:38;8.50;99.90
10453;DHT22;5274;51.992;8.518;2022-09-27T05:26:05;8.50;99.90
10453;DHT22;5274;51.992;8.518;2022-09-27T05:28:31;8.50;99.90
10453;DHT22;5274;51.992;8.518;2022-09-27T05:31:00;8.50;99.90
10453;DHT22;5274;51.992;8.518;2022-09-27T05:33:25;8.50;99.90
10453;DHT22;5274;51.992;8.518;2022-09-27T05:35:55;8.40;99.90
10453;DHT22;5274;51.992;8.518;2022-09-27T05:38:21;8.40;99.90
10453;DHT22;5274;51.992;8.518;2022-09-27T05:40:47;8.40;99.90
10453;DHT22;5274;51.992;8.518;2022-09-27T05:43:15;8.50;99.90
10453;DHT22;5274;51.992;8.518;2022-09-27T05:45:42;8.50;99.90
10453;DHT22;5274;51.992;8.518;2022-09-27T05:48:09;8.50;99.90
10453;DHT22;5274;51.992;8.518;2022-09-27T05:50:35;8.50;99.90
10453;DHT22;5274;51.992;8.518;2022-09-27T05:53:00;8.40;99.90
10453;DHT22;5274;51.992;8.518;2022-09-27T05:55:26;8.50;99.90
10453;DHT22;5274;51.992;8.518;2022-09-27T05:58:00;8.40;99.90
10453;DHT22;5274;51.992;8.518;2022-09-27T06:00:27;8.50;99.90
10453;DHT22;5274;51.992;8.518;2022-09-27T06:02:53;8.50;99.90
10453;DHT22;5274;51.992;8.518;2022-09-27T06:05:19;8.50;99.90
10453;DHT22;5274;51.992;8.518;2022-09-27T06:07:45;8.40;99.90
10453;DHT22;5274;51.992;8.518;2022-09-27T06:10:10;8.40;99.90
10453;DHT22;5274;51.992;8.518;2022-09-27T06:12:36;8.40;99.90
10453;DHT22;5274;51.992;8.518;2022-09-27T06:15:02;8.40;99.90
10453;DHT22;5274;51.992;8.518;2022-09-27T06:17:28;7.50;99.90
10453;DHT22;5274;51.992;8.518;2022-09-27T06:19:54;8.40;99.90
10453;DHT22;5274;51.992;8.518;2022-09-27T06:22:19;8.40;99.90
10453;DHT22;5274;51.992;8.518;2022-09-27T06:24:45;8.50;99.90
10453;DHT22;5274;51.992;8.518;2022-09-27T06:27:10;8.40;99.90
10453;DHT22;5274;51.992;8.518;2022-09-27T06:29:36;8.40;99.90
10453;DHT22;5274;51.992;8.518;2022-09-27T06:32:02;8.30;99.90
10453;DHT22;5274;51.992;8.518;2022-09-27T06:34:28;8.30;99.90
10453;DHT22;5274;51.992;8.518;2022-09-27T06:36:54;8.40;99.90
10453;DHT22;5274;51.992;8.518;2022-09-27T06:39:21;8.40;99.90
10453;DHT22;5274;51.992;8.518;2022-09-27T06:41:46;8.30;99.90
10453;DHT22;5274;51.992;8.518;2022-09-27T06:44:12;8.10;99.90
10453;DHT22;5274;51.992;8.518;2022-09-27T06:46:38;8.20;99.90
10453;DHT22;5274;51.992;8.518;2022-09-27T06:49:04;8.30;99.90
10453;DHT22;5274;51.992;8.518;2022-09-27T06:51:31;8.20;99.90
10453;DHT22;5274;51.992;8.518;2022-09-27T06:53:56;8.20;99.90
10453;DHT22;5274;51.992;8.518;2022-09-27T06:56:22;8.20;99.90
10453;DHT22;5274;51.992;8.518;2022-09-27T06:58:47;8.30;99.90
10453;DHT22;5274;51.992;8.518;2022-09-27T07:01:31;8.30;99.90
10453;DHT22;5274;51.992;8.518;2022-09-27T07:03:56;8.30;99.90
10453;DHT22;5274;51.992;8.518;2022-09-27T07:06:23;8.30;99.90
10453;DHT22;5274;51.992;8.518;2022-09-27T07:08:51;8.30;99.90
10453;DHT22;5274;51.992;8.518;2022-09-27T07:11:16;8.20;99.90
10453;DHT22;5274;51.992;8.518;2022-09-27T07:13:42;8.20;99.90
10453;DHT22;5274;51.992;8.518;2022-09-27T07:16:14;8.20;99.90
10453;DHT22;5274;51.992;8.518;2022-09-27T07:18:40;8.30;99.90
10453;DHT22;5274;51.992;8.518;2022-09-27T07:21:06;8.30;99.90
10453;DHT22;5274;51.992;8.518;2022-09-27T07:23:33;8.60;99.90
10453;DHT22;5274;51.992;8.518;2022-09-27T07:26:03;8.70;99.90
10453;DHT22;5274;51.992;8.518;2022-09-27T07:28:29;8.60;99.90
10453;DHT22;5274;51.992;8.518;2022-09-27T07:30:55;8.60;99.90
10453;DHT22;5274;51.992;8.518;2022-09-27T07:33:21;8.60;99.90
10453;DHT22;5274;51.992;8.518;2022-09-27T07:35:47;8.60;99.90
10453;DHT22;5274;51.992;8.518;2022-09-27T07:38:12;8.70;99.90
10453;DHT22;5274;51.992;8.518;2022-09-27T07:40:39;8.70;99.90
10453;DHT22;5274;51.992;8.518;2022-09-27T07:43:04;8.80;99.90
10453;DHT22;5274;51.992;8.518;2022-09-27T07:45:30;8.70;99.90
10453;DHT22;5274;51.992;8.518;2022-09-27T07:47:56;8.80;99.90
10453;DHT22;5274;51.992;8.518;2022-09-27T07:50:22;8.80;99.90
10453;DHT22;5274;51.992;8.518;2022-09-27T07:52:48;8.80;99.90
10453;DHT22;5274;51.992;8.518;2022-09-27T07:55:18;9.00;99.90
10453;DHT22;5274;51.992;8.518;2022-09-27T07:57:44;8.90;99.90
10453;DHT22;5274;51.992;8.518;2022-09-27T08:00:14;9.00;99.90
10453;DHT22;5274;51.992;8.518;2022-09-27T08:02:41;9.10;99.90
10453;DHT22;5274;51.992;8.518;2022-09-27T08:05:07;9.10;99.90
10453;DHT22;5274;51.992;8.518;2022-09-27T08:07:33;9.00;99.90
10453;DHT22;5274;51.992;8.518;2022-09-27T08:09:59;7.40;99.90
10453;DHT22;5274;51.992;8.518;2022-09-27T08:12:24;9.20;99.90
10453;DHT22;5274;51.992;8.518;2022-09-27T08:14:50;9.20;99.90
10453;DHT22;5274;51.992;8.518;2022-09-27T08:17:22;9.30;99.90
10453;DHT22;5274;51.992;8.518;2022-09-27T08:19:48;9.30;99.90
10453;DHT22;5274;51.992;8.518;2022-09-27T08:22:14;9.20;99.90
10453;DHT22;5274;51.992;8.518;2022-09-27T08:24:40;9.50;99.90
10453;DHT22;5274;51.992;8.518;2022-09-27T08:27:06;9.40;99.90
10453;DHT22;5274;51.992;8.518;2022-09-27T08:29:33;9.40;99.90
10453;DHT22;5274;51.992;8.518;2022-09-27T08:31:59;9.60;99.90
10453;DHT22;5274;51.992;8.518;2022-09-27T08:34:24;9.40;99.90
10453;DHT22;5274;51.992;8.518;2022-09-27T08:36:50;9.40;99.90
10453;DHT22;5274;51.992;8.518;2022-09-27T08:39:15;9.70;99.90
10453;DHT22;5274;51.992;8.518;2022-09-27T08:41:51;9.80;99.90
10453;DHT22;5274;51.992;8.518;2022-09-27T08:47:35;10.00;99.90
10453;DHT22;5274;51.992;8.518;2022-09-27T08:50:21;9.90;99.90
10453;DHT22;5274;51.992;8.518;2022-09-27T08:52:55;10.20;99.90
10453;DHT22;5274;51.992;8.518;2022-09-27T08:55:32;10.30;99.90
10453;DHT22;5274;51.992;8.518;2022-09-27T08:58:03;10.30;27.50
10453;DHT22;5274;51.992;8.518;2022-09-27T09:00:34;10.40;90.00
10453;DHT22;5274;51.992;8.518;2022-09-27T09:03:01;10.30;99.90
10453;DHT22;5274;51.992;8.518;2022-09-27T09:05:29;10.50;91.90
10453;DHT22;5274;51.992;8.518;2022-09-27T09:14:46;10.60;1.00
10453;DHT22;5274;51.992;8.518;2022-09-27T09:18:15;10.80;81.10
10453;DHT22;5274;51.992;8.518;2022-09-27T09:28:46;10.90;1.00
10453;DHT22;5274;51.992;8.518;2022-09-27T09:31:38;11.00;1.00
10453;DHT22;5274;51.992;8.518;2022-09-27T09:36:52;10.80;1.00
10453;DHT22;5274;51.992;8.518;2022-09-27T09:39:34;10.90;1.00
10453;DHT22;5274;51.992;8.518;2022-09-27T09:42:08;11.10;1.00
10453;DHT22;5274;51.992;8.518;2022-09-27T09:44:49;11.00;99.90
10453;DHT22;5274;51.992;8.518;2022-09-27T09:47:33;11.00;99.90
10453;DHT22;5274;51.992;8.518;2022-09-27T09:50:05;11.00;99.90
10453;DHT22;5274;51.992;8.518;2022-09-27T09:52:44;11.30;1.00
10453;DHT22;5274;51.992;8.518;2022-09-27T09:55:20;11.40;99.90
10453;DHT22;5274;51.992;8.518;2022-09-27T10:00:28;11.40;1.00
10453;DHT22;5274;51.992;8.518;2022-09-27T10:02:56;11.50;1.00
10453;DHT22;5274;51.992;8.518;2022-09-27T10:05:23;11.60;1.00
10453;DHT22;5274;51.992;8.518;2022-09-27T10:07:52;11.50;11.00
10453;DHT22;5274;51.992;8.518;2022-09-27T10:10:19;11.60;1.00
10453;DHT22;5274;51.992;8.518;2022-09-27T10:12:45;11.70;1.00
10453;DHT22;5274;51.992;8.518;2022-09-27T10:15:21;11.70;99.90
10453;DHT22;5274;51.992;8.518;2022-09-27T10:17:52;11.60;99.90
10453;DHT22;5274;51.992;8.518;2022-09-27T10:23:14;12.00;1.00
10453;DHT22;5274;51.992;8.518;2022-09-27T10:25:53;12.10;99.90
10453;DHT22;5274;51.992;8.518;2022-09-27T10:28:35;11.80;1.00
10453;DHT22;5274;51.992;8.518;2022-09-27T10:31:04;10.70;1.00
10453;DHT22;5274;51.992;8.518;2022-09-27T10:33:31;9.90;99.70
10453;DHT22;5274;51.992;8.518;2022-09-27T10:35:58;9.70;99.90
10453;DHT22;5274;51.992;8.518;2022-09-27T10:38:30;9.10;99.90
10453;DHT22;5274;51.992;8.518;2022-09-27T10:40:58;9.00;99.90
10453;DHT22;5274;51.992;8.518;2022-09-27T10:43:39;9.10;99.90
10453;DHT22;5274;51.992;8.518;2022-09-27T10:48:33;8.90;99.90
10453;DHT22;5274;51.992;8.518;2022-09-27T10:51:07;8.90;99.90
10453;DHT22;5274;51.992;8.518;2022-09-27T10:53:44;8.80;99.90
10453;DHT22;5274;51.992;8.518;2022-09-27T10:56:21;9.10;99.90
10453;DHT22;5274;51.992;8.518;2022-09-27T10:58:47;9.00;99.90
10453;DHT22;5274;51.992;8.518;2022-09-27T11:01:13;9.20;99.90
10453;DHT22;5274;51.992;8.518;2022-09-27T11:03:47;9.20;99.90
10453;DHT22;5274;51.992;8.518;2022-09-27T11:06:28;9.30;99.90
10453;DHT22;5274;51.992;8.518;2022-09-27T11:08:55;9.40;99.90
10453;DHT22;5274;51.992;8.518;2022-09-27T11:11:33;9.50;99.90
10453;DHT22;5274;51.992;8.518;2022-09-27T11:14:02;9.90;99.90
10453;DHT22;5274;51.992;8.518;2022-09-27T11:30:20;10.60;99.90
10453;DHT22;5274;51.992;8.518;2022-09-27T11:33:37;10.60;15.60
10453;DHT22;5274;51.992;8.518;2022-09-27T11:36:12;11.80;1.00
10453;DHT22;5274;51.992;8.518;2022-09-27T11:39:20;11.80;1.00
10453;DHT22;5274;51.992;8.518;2022-09-27T11:44:47;17.00;1.00
10453;DHT22;5274;51.992;8.518;2022-09-27T11:47:43;15.30;99.90
10453;DHT22;5274;51.992;8.518;2022-09-27T11:50:29;14.30;1.00
10453;DHT22;5274;51.992;8.518;2022-09-27T11:53:36;13.70;99.90
10453;DHT22;5274;51.992;8.518;2022-09-27T11:56:07;14.30;1.00
10453;DHT22;5274;51.992;8.518;2022-09-27T11:59:00;13.80;1.00
10453;DHT22;5274;51.992;8.518;2022-09-27T12:07:24;12.40;1.00
10453;DHT22;5274;51.992;8.518;2022-09-27T12:09:58;12.20;99.90
10453;DHT22;5274;51.992;8.518;2022-09-27T12:12:28;12.20;14.20
10453;DHT22;5274;51.992;8.518;2022-09-27T12:15:01;11.40;99.90
10453;DHT22;5274;51.992;8.518;2022-09-27T12:17:30;10.60;1.00
10453;DHT22;5274;51.992;8.518;2022-09-27T12:20:02;10.20;99.90
10453;DHT22;5274;51.992;8.518;2022-09-27T12:22:39;10.10;99.90
10453;DHT22;5274;51.992;8.518;2022-09-27T12:25:13;11.00;99.90
10453;DHT22;5274;51.992;8.518;2022-09-27T12:27:51;11.50;99.90
10453;DHT22;5274;51.992;8.518;2022-09-27T12:30:19;12.20;1.00
10453;DHT22;5274;51.992;8.518;2022-09-27T12:33:06;15.90;1.00
10453;DHT22;5274;51.992;8.518;2022-09-27T12:35:39;15.60;99.90
10453;DHT22;5274;51.992;8.518;2022-09-27T12:38:31;16.10;99.90
10453;DHT22;5274;51.992;8.518;2022-09-27T12:40:59;15.80;99.90
10453;DHT22;5274;51.992;8.518;2022-09-27T12:43:29;14.60;99.90
10453;DHT22;5274;51.992;8.518;2022-09-27T12:51:55;13.30;1.00
10453;DHT22;5274;51.992;8.518;2022-09-27T13:00:27;11.50;99.90
10453;DHT22;5274;51.992;8.518;2022-09-27T13:03:06;11.40;99.90
10453;DHT22;5274;51.992;8.518;2022-09-27T13:05:50;11.40;99.90
10453;DHT22;5274;51.992;8.518;2022-09-27T13:11:08;13.10;1.00
10453;DHT22;5274;51.992;8.518;2022-09-27T13:13:40;14.40;99.90
10453;DHT22;5274;51.992;8.518;2022-09-27T13:16:07;15.20;1.00
10453;DHT22;5274;51.992;8.518;2022-09-27T13:21:06;14.30;1.00
10453;DHT22;5274;51.992;8.518;2022-09-27T13:26:20;16.40;99.90
10453;DHT22;5274;51.992;8.518;2022-09-27T13:31:14;17.00;99.90
10453;DHT22;5274;51.992;8.518;2022-09-27T13:33:44;15.90;1.00
10453;DHT22;5274;51.992;8.518;2022-09-27T13:41:41;14.40;1.00
10453;DHT22;5274;51.992;8.518;2022-09-27T13:49:40;14.90;1.00
10453;DHT22;5274;51.992;8.518;2022-09-27T13:52:19;14.00;80.40
10453;DHT22;5274;51.992;8.518;2022-09-27T14:00:02;13.20;1.00
10453;DHT22;5274;51.992;8.518;2022-09-27T14:02:37;12.90;9.90
10453;DHT22;5274;51.992;8.518;2022-09-27T14:05:09;12.60;1.00
10453;DHT22;5274;51.992;8.518;2022-09-27T14:07:42;12.50;99.90
10453;DHT22;5274;51.992;8.518;2022-09-27T14:10:16;12.50;1.00
10453;DHT22;5274;51.992;8.518;2022-09-27T14:12:42;12.80;1.00
10453;DHT22;5274;51.992;8.518;2022-09-27T14:15:15;12.70;99.90
10453;DHT22;5274;51.992;8.518;2022-09-27T14:17:42;12.90;99.90
10453;DHT22;5274;51.992;8.518;2022-09-27T14:20:29;12.60;99.90
10453;DHT22;5274;51.992;8.518;2022-09-27T14:22:56;12.50;99.90
10453;DHT22;5274;51.992;8.518;2022-09-27T14:25:22;13.50;99.90
10453;DHT22;5274;51.992;8.518;2022-09-27T14:27:47;14.40;99.90
10453;DHT22;5274;51.992;8.518;2022-09-27T14:30:18;14.40;1.00
10453;DHT22;5274;51.992;8.518;2022-09-27T14:32:53;13.70;1.00
10453;DHT22;5274;51.992;8.518;2022-09-27T14:35:29;13.90;1.00
10453;DHT22;5274;51.992;8.518;2022-09-27T14:38:16;13.40;99.90
10453;DHT22;5274;51.992;8.518;2022-09-27T14:43:20;13.10;99.90
10453;DHT22;5274;51.992;8.518;2022-09-27T14:45:50;13.20;99.90
10453;DHT22;5274;51.992;8.518;2022-09-27T14:48:37;13.20;1.00
10453;DHT22;5274;51.992;8.518;2022-09-27T14:51:19;12.80;1.00
10453;DHT22;5274;51.992;8.518;2022-09-27T14:53:48;12.80;1.00
10453;DHT22;5274;51.992;8.518;2022-09-27T14:56:18;12.40;1.00
10453;DHT22;5274;51.992;8.518;2022-09-27T14:58:48;12.10;53.40
10453;DHT22;5274;51.992;8.518;2022-09-27T15:01:17;12.10;99.90
10453;DHT22;5274;51.992;8.518;2022-09-27T15:03:45;12.00;22.90
10453;DHT22;5274;51.992;8.518;2022-09-27T15:06:11;12.10;1.00
10453;DHT22;5274;51.992;8.518;2022-09-27T15:08:37;11.90;29.30
10453;DHT22;5274;51.992;8.518;2022-09-27T15:11:04;11.70;99.90
10453;DHT22;5274;51.992;8.518;2022-09-27T15:13:32;10.50;50.30
10453;DHT22;5274;51.992;8.518;2022-09-27T15:15:58;9.80;99.90
10453;DHT22;5274;51.992;8.518;2022-09-27T15:20:56;9.20;99.90
10453;DHT22;5274;51.992;8.518;2022-09-27T15:23:27;9.50;99.90
10453;DHT22;5274;51.992;8.518;2022-09-27T15:26:23;9.60;99.90
10453;DHT22;5274;51.992;8.518;2022-09-27T15:28:50;9.80;99.90
10453;DHT22;5274;51.992;8.518;2022-09-27T15:31:27;9.60;99.90
10453;DHT22;5274;51.992;8.518;2022-09-27T15:33:55;9.70;99.90
10453;DHT22;5274;51.992;8.518;2022-09-27T15:36:55;9.80;99.90
10453;DHT22;5274;51.992;8.518;2022-09-27T15:39:30;9.70;99.90
10453;DHT22;5274;51.992;8.518;2022-09-27T15:42:13;9.50;99.90
10453;DHT22;5274;51.992;8.518;2022-09-27T15:52:44;9.70;99.90
10453;DHT22;5274;51.992;8.518;2022-09-27T15:55:12;9.80;99.90
10453;DHT22;5274;51.992;8.518;2022-09-27T15:57:38;9.80;99.90
10453;DHT22;5274;51.992;8.518;2022-09-27T16:00:05;9.80;99.90
10453;DHT22;5274;51.992;8.518;2022-09-27T16:02:31;9.70;99.90
10453;DHT22;5274;51.992;8.518;2022-09-27T16:04:57;9.60;99.90
10453;DHT22;5274;51.992;8.518;2022-09-27T16:07:22;9.40;99.90
10453;DHT22;5274;51.992;8.518;2022-09-27T16:09:48;9.40;99.90
10453;DHT22;5274;51.992;8.518;2022-09-27T16:12:16;9.60;99.90
10453;DHT22;5274;51.992;8.518;2022-09-27T16:14:41;9.60;99.90
10453;DHT22;5274;51.992;8.518;2022-09-27T16:17:08;9.70;99.90
10453;DHT22;5274;51.992;8.518;2022-09-27T16:19:34;9.60;99.90
10453;DHT22;5274;51.992;8.518;2022-09-27T16:22:00;9.70;99.90
10453;DHT22;5274;51.992;8.518;2022-09-27T16:24:28;9.60;99.90
10453;DHT22;5274;51.992;8.518;2022-09-27T16:26:53;9.40;99.90
10453;DHT22;5274;51.992;8.518;2022-09-27T16:29:19;9.10;99.90
10453;DHT22;5274;51.992;8.518;2022-09-27T16:31:45;9.10;99.90
10453;DHT22;5274;51.992;8.518;2022-09-27T16:34:11;9.00;99.90
10453;DHT22;5274;51.992;8.518;2022-09-27T16:36:37;9.20;99.90
10453;DHT22;5274;51.992;8.518;2022-09-27T16:39:05;9.10;99.90
10453;DHT22;5274;51.992;8.518;2022-09-27T16:41:31;9.10;99.90
10453;DHT22;5274;51.992;8.518;2022-09-27T16:43:58;9.00;99.90
10453;DHT22;5274;51.992;8.518;2022-09-27T16:46:23;9.10;99.90
10453;DHT22;5274;51.992;8.518;2022-09-27T16:48:49;9.00;99.90
10453;DHT22;5274;51.992;8.518;2022-09-27T16:51:19;8.80;99.90
10453;DHT22;5274;51.992;8.518;2022-09-27T16:54:05;8.80;99.90
10453;DHT22;5274;51.992;8.518;2022-09-27T16:56:32;8.90;99.90
10453;DHT22;5274;51.992;8.518;2022-09-27T16:58:59;8.80;99.90
10453;DHT22;5274;51.992;8.518;2022-09-27T17:01:28;8.80;99.90
10453;DHT22;5274;51.992;8.518;2022-09-27T17:03:53;8.80;99.90
10453;DHT22;5274;51.992;8.518;2022-09-27T17:06:19;8.70;99.90
10453;DHT22;5274;51.992;8.518;2022-09-27T17:08:45;8.70;99.90
10453;DHT22;5274;51.992;8.518;2022-09-27T17:11:15;8.70;99.90
10453;DHT22;5274;51.992;8.518;2022-09-27T17:13:42;8.60;99.90
10453;DHT22;5274;51.992;8.518;2022-09-27T17:16:09;8.50;99.90
10453;DHT22;5274;51.992;8.518;2022-09-27T17:18:35;8.60;99.90
10453;DHT22;5274;51.992;8.518;2022-09-27T17:21:02;8.70;99.90
10453;DHT22;5274;51.992;8.518;2022-09-27T17:23:29;8.70;99.90
10453;DHT22;5274;51.992;8.518;2022-09-27T17:26:01;8.70;99.90
10453;DHT22;5274;51.992;8.518;2022-09-27T17:28:27;8.60;99.90
10453;DHT22;5274;51.992;8.518;2022-09-27T17:30:53;8.60;99.90
10453;DHT22;5274;51.992;8.518;2022-09-27T17:33:20;8.50;99.90
10453;DHT22;5274;51.992;8.518;2022-09-27T17:35:46;8.50;99.90
10453;DHT22;5274;51.992;8.518;2022-09-27T17:38:12;8.50;99.90
10453;DHT22;5274;51.992;8.518;2022-09-27T17:40:37;8.50;99.90
10453;DHT22;5274;51.992;8.518;2022-09-27T17:43:03;8.50;99.90
10453;DHT22;5274;51.992;8.518;2022-09-27T17:45:32;8.50;99.90
10453;DHT22;5274;51.992;8.518;2022-09-27T17:47:58;8.40;99.90
10453;DHT22;5274;51.992;8.518;2022-09-27T17:50:45;8.40;99.90
10453;DHT22;5274;51.992;8.518;2022-09-27T17:53:10;8.40;99.90
10453;DHT22;5274;51.992;8.518;2022-09-27T17:55:36;8.40;99.90
10453;DHT22;5274;51.992;8.518;2022-09-27T17:58:02;8.50;99.90
10453;DHT22;5274;51.992;8.518;2022-09-27T18:00:29;8.50;99.90
10453;DHT22;5274;51.992;8.518;2022-09-27T18:02:54;8.40;99.90
10453;DHT22;5274;51.992;8.518;2022-09-27T18:05:20;8.40;99.90
10453;DHT22;5274;51.992;8.518;2022-09-27T18:07:46;8.40;99.90
10453;DHT22;5274;51.992;8.518;2022-09-27T18:10:11;8.30;99.90
10453;DHT22;5274;51.992;8.518;2022-09-27T18:12:36;8.30;99.90
10453;DHT22;5274;51.992;8.518;2022-09-27T18:15:03;8.30;99.90
10453;DHT22;5274;51.992;8.518;2022-09-27T18:17:29;8.20;99.90
10453;DHT22;5274;51.992;8.518;2022-09-27T18:19:54;8.20;99.90
10453;DHT22;5274;51.992;8.518;2022-09-27T18:22:21;8.20;99.90
10453;DHT22;5274;51.992;8.518;2022-09-27T18:24:49;8.20;99.90
10453;DHT22;5274;51.992;8.518;2022-09-27T18:27:14;8.20;99.90
10453;DHT22;5274;51.992;8.518;2022-09-27T18:29:42;8.10;99.90